KLM1818 VOBL-VOMM
Flight info
| Callsign | KLM1818 |
|---|---|
| Flight time | 0h 37m |
| Altitude | 17000 |
| Route | BIA W116 MMV |
| Aircraft | B77L/H-SDE1E2E3FGHIJ2J3J4J5M1RWXY/LB1D1 |
Departure
| Time | 2026-05-07 15:56 |
|---|---|
| Airport | Kempegowda International Airport Bengaluru (VOBL) |
Arrival
| Time | 2026-05-07 16:33 |
|---|---|
| Airport | Chennai International Airport (VOMM) |
| Time | Latitude | Longitude | Altitude | Speed | Heading |
|---|---|---|---|---|---|
| 2026-05-07 15:26 | 13.20352 | 77.70503 | 2972 ft | 0 kts | 0° |
| 2026-05-07 15:41 | 13.20334 | 77.70504 | 2949 ft | 4 kts | 343° |
| 2026-05-07 15:41 | 13.20317 | 77.70514 | 2977 ft | 4 kts | 299° |
| 2026-05-07 15:41 | 13.20310 | 77.70535 | 2971 ft | 2 kts | 270° |
| 2026-05-07 15:42 | 13.20310 | 77.70536 | 2971 ft | 1 kts | 270° |
| 2026-05-07 15:45 | 13.20310 | 77.70529 | 2971 ft | 0 kts | 270° |
| 2026-05-07 15:51 | 13.20303 | 77.70492 | 2972 ft | 16 kts | 250° |
| 2026-05-07 15:52 | 13.20306 | 77.70392 | 2974 ft | 10 kts | 316° |
| 2026-05-07 15:52 | 13.20380 | 77.70385 | 2974 ft | 15 kts | 11° |
| 2026-05-07 15:52 | 13.20517 | 77.70375 | 2975 ft | 24 kts | 323° |
| 2026-05-07 15:52 | 13.20616 | 77.70243 | 2979 ft | 24 kts | 281° |
| 2026-05-07 15:53 | 13.20544 | 77.70096 | 2981 ft | 24 kts | 242° |
| 2026-05-07 15:53 | 13.20532 | 77.69928 | 2985 ft | 24 kts | 270° |
| 2026-05-07 15:53 | 13.20534 | 77.69758 | 2989 ft | 24 kts | 271° |
| 2026-05-07 15:53 | 13.20536 | 77.69588 | 2992 ft | 24 kts | 271° |
| 2026-05-07 15:54 | 13.20538 | 77.69417 | 2995 ft | 24 kts | 271° |
| 2026-05-07 15:54 | 13.20540 | 77.69247 | 2999 ft | 24 kts | 269° |
| 2026-05-07 15:54 | 13.20540 | 77.69079 | 3003 ft | 24 kts | 270° |
| 2026-05-07 15:54 | 13.20543 | 77.68910 | 3007 ft | 24 kts | 271° |
| 2026-05-07 15:55 | 13.20546 | 77.68707 | 3012 ft | 26 kts | 271° |
| 2026-05-07 15:55 | 13.20635 | 77.68622 | 3014 ft | 21 kts | 0° |
| 2026-05-07 15:55 | 13.20707 | 77.68663 | 3013 ft | 6 kts | 63° |
| 2026-05-07 15:55 | 13.20716 | 77.68705 | 3012 ft | 0 kts | 84° |
| 2026-05-07 15:56 | 13.20720 | 77.68758 | 3011 ft | 26 kts | 88° |
| 2026-05-07 15:56 | 13.20712 | 77.69294 | 2999 ft | 125 kts | 90° |
| 2026-05-07 15:56 | 13.20706 | 77.70492 | 2987 ft | 210 kts | 90° |
| 2026-05-07 15:56 | 13.20697 | 77.72042 | 3920 ft | 222 kts | 93° |
| 2026-05-07 15:57 | 13.20696 | 77.73667 | 4930 ft | 225 kts | 89° |
| 2026-05-07 15:57 | 13.21182 | 77.75205 | 5569 ft | 238 kts | 52° |
| 2026-05-07 15:57 | 13.22507 | 77.76296 | 6047 ft | 254 kts | 38° |
| 2026-05-07 15:57 | 13.23686 | 77.77717 | 6043 ft | 270 kts | 63° |
| 2026-05-07 15:58 | 13.24594 | 77.79422 | 6031 ft | 274 kts | 61° |
| 2026-05-07 15:58 | 13.25551 | 77.81124 | 6039 ft | 275 kts | 61° |
| 2026-05-07 15:58 | 13.26485 | 77.82829 | 6017 ft | 271 kts | 66° |
| 2026-05-07 15:58 | 13.26912 | 77.84653 | 6022 ft | 265 kts | 89° |
| 2026-05-07 15:59 | 13.26878 | 77.86556 | 6033 ft | 270 kts | 92° |
| 2026-05-07 15:59 | 13.26843 | 77.88500 | 6029 ft | 275 kts | 91° |
| 2026-05-07 15:59 | 13.26816 | 77.90465 | 6019 ft | 275 kts | 91° |
| 2026-05-07 15:59 | 13.26792 | 77.92420 | 6005 ft | 273 kts | 91° |
| 2026-05-07 16:00 | 13.26771 | 77.94365 | 5994 ft | 272 kts | 90° |
| 2026-05-07 16:00 | 13.26750 | 77.96296 | 6001 ft | 270 kts | 90° |
| 2026-05-07 16:00 | 13.26730 | 77.98220 | 6001 ft | 269 kts | 90° |
| 2026-05-07 16:00 | 13.26711 | 78.00119 | 6376 ft | 271 kts | 90° |
| 2026-05-07 16:01 | 13.26692 | 78.02080 | 7150 ft | 277 kts | 90° |
| 2026-05-07 16:01 | 13.26672 | 78.04073 | 7955 ft | 283 kts | 89° |
| 2026-05-07 16:01 | 13.26651 | 78.06116 | 8756 ft | 288 kts | 89° |
| 2026-05-07 16:01 | 13.26630 | 78.08182 | 9609 ft | 292 kts | 89° |
| 2026-05-07 16:02 | 13.26424 | 78.10270 | 10267 ft | 300 kts | 100° |
| 2026-05-07 16:02 | 13.25872 | 78.12417 | 10603 ft | 324 kts | 105° |
| 2026-05-07 16:02 | 13.25165 | 78.14715 | 10821 ft | 351 kts | 107° |
| 2026-05-07 16:02 | 13.24392 | 78.17147 | 11048 ft | 374 kts | 107° |
| 2026-05-07 16:03 | 13.23582 | 78.19714 | 11716 ft | 383 kts | 107° |
| 2026-05-07 16:03 | 13.22767 | 78.22343 | 12445 ft | 389 kts | 107° |
| 2026-05-07 16:03 | 13.21957 | 78.25001 | 13282 ft | 392 kts | 106° |
| 2026-05-07 16:03 | 13.21149 | 78.27688 | 14033 ft | 398 kts | 107° |
| 2026-05-07 16:04 | 13.20334 | 78.30422 | 14721 ft | 402 kts | 106° |
| 2026-05-07 16:04 | 13.19517 | 78.33177 | 15438 ft | 406 kts | 107° |
| 2026-05-07 16:04 | 13.18696 | 78.35953 | 16178 ft | 408 kts | 107° |
| 2026-05-07 16:04 | 13.17878 | 78.38723 | 16852 ft | 413 kts | 107° |
| 2026-05-07 16:05 | 13.17041 | 78.41553 | 17539 ft | 417 kts | 107° |
| 2026-05-07 16:05 | 13.16195 | 78.44415 | 18200 ft | 421 kts | 107° |
| 2026-05-07 16:05 | 13.15347 | 78.47280 | 18790 ft | 418 kts | 107° |
| 2026-05-07 16:05 | 13.14502 | 78.50135 | 18943 ft | 419 kts | 107° |
| 2026-05-07 16:06 | 13.13661 | 78.52978 | 18932 ft | 414 kts | 107° |
| 2026-05-07 16:06 | 13.12820 | 78.55815 | 18941 ft | 418 kts | 107° |
| 2026-05-07 16:06 | 13.11972 | 78.58677 | 18942 ft | 418 kts | 107° |
| 2026-05-07 16:06 | 13.11127 | 78.61525 | 18933 ft | 419 kts | 107° |
| 2026-05-07 16:07 | 13.10288 | 78.64353 | 18934 ft | 419 kts | 107° |
| 2026-05-07 16:07 | 13.09441 | 78.67207 | 18930 ft | 419 kts | 107° |
| 2026-05-07 16:07 | 13.08591 | 78.70066 | 18930 ft | 420 kts | 107° |
| 2026-05-07 16:07 | 13.07741 | 78.72928 | 18932 ft | 419 kts | 107° |
| 2026-05-07 16:08 | 13.06891 | 78.75790 | 18923 ft | 419 kts | 108° |
| 2026-05-07 16:08 | 13.06041 | 78.78648 | 18922 ft | 419 kts | 108° |
| 2026-05-07 16:08 | 13.05189 | 78.81510 | 18920 ft | 420 kts | 108° |
| 2026-05-07 16:08 | 13.04337 | 78.84373 | 18919 ft | 421 kts | 108° |
| 2026-05-07 16:09 | 13.03485 | 78.87235 | 18913 ft | 415 kts | 108° |
| 2026-05-07 16:09 | 13.02678 | 78.89952 | 18886 ft | 391 kts | 108° |
| 2026-05-07 16:09 | 13.01909 | 78.92536 | 18877 ft | 367 kts | 108° |
| 2026-05-07 16:09 | 13.01185 | 78.94967 | 18881 ft | 350 kts | 108° |
| 2026-05-07 16:10 | 13.00478 | 78.97334 | 18901 ft | 348 kts | 108° |
| 2026-05-07 16:10 | 12.99765 | 78.99722 | 18908 ft | 353 kts | 108° |
| 2026-05-07 16:10 | 12.99041 | 79.02144 | 18914 ft | 357 kts | 108° |
| 2026-05-07 16:10 | 12.98313 | 79.04585 | 18910 ft | 359 kts | 108° |
| 2026-05-07 16:11 | 12.97585 | 79.07026 | 18897 ft | 357 kts | 108° |
| 2026-05-07 16:11 | 12.96860 | 79.09450 | 18893 ft | 354 kts | 108° |
| 2026-05-07 16:11 | 12.96157 | 79.11821 | 18885 ft | 351 kts | 108° |
| 2026-05-07 16:11 | 12.95452 | 79.14209 | 18890 ft | 349 kts | 108° |
| 2026-05-07 16:12 | 12.94750 | 79.16594 | 18889 ft | 350 kts | 108° |
| 2026-05-07 16:12 | 12.94045 | 79.18988 | 18774 ft | 351 kts | 108° |
| 2026-05-07 16:12 | 12.93341 | 79.21380 | 18666 ft | 351 kts | 108° |
| 2026-05-07 16:12 | 12.92635 | 79.23774 | 18564 ft | 350 kts | 108° |
| 2026-05-07 16:13 | 12.91930 | 79.26163 | 18475 ft | 350 kts | 108° |
| 2026-05-07 16:13 | 12.91226 | 79.28548 | 18376 ft | 349 kts | 108° |
| 2026-05-07 16:13 | 12.90530 | 79.30908 | 18101 ft | 354 kts | 108° |
| 2026-05-07 16:13 | 12.89812 | 79.33335 | 17590 ft | 357 kts | 108° |
| 2026-05-07 16:14 | 12.89092 | 79.35772 | 17128 ft | 357 kts | 107° |
| 2026-05-07 16:14 | 12.88374 | 79.38201 | 16670 ft | 356 kts | 107° |
| 2026-05-07 16:14 | 12.87656 | 79.40631 | 16197 ft | 356 kts | 107° |
| 2026-05-07 16:14 | 12.86939 | 79.43053 | 15750 ft | 355 kts | 107° |
| 2026-05-07 16:15 | 12.86224 | 79.45469 | 15309 ft | 354 kts | 107° |
| 2026-05-07 16:15 | 12.85512 | 79.47881 | 14854 ft | 352 kts | 105° |
| 2026-05-07 16:15 | 12.85208 | 79.50308 | 14396 ft | 348 kts | 85° |
| 2026-05-07 16:15 | 12.85736 | 79.52690 | 14039 ft | 341 kts | 69° |
| 2026-05-07 16:16 | 12.86569 | 79.54948 | 13667 ft | 337 kts | 68° |
| 2026-05-07 16:16 | 12.87420 | 79.57166 | 13220 ft | 329 kts | 68° |
| 2026-05-07 16:16 | 12.88244 | 79.59307 | 12780 ft | 317 kts | 68° |
| 2026-05-07 16:16 | 12.89037 | 79.61376 | 12347 ft | 306 kts | 68° |
| 2026-05-07 16:17 | 12.89797 | 79.63376 | 11914 ft | 296 kts | 68° |
| 2026-05-07 16:17 | 12.90510 | 79.65265 | 11499 ft | 288 kts | 68° |
| 2026-05-07 16:17 | 12.91210 | 79.67125 | 11092 ft | 280 kts | 68° |
| 2026-05-07 16:17 | 12.91913 | 79.69002 | 10688 ft | 276 kts | 68° |
| 2026-05-07 16:18 | 12.92588 | 79.70806 | 10310 ft | 277 kts | 68° |
| 2026-05-07 16:18 | 12.93282 | 79.72663 | 9946 ft | 281 kts | 68° |
| 2026-05-07 16:18 | 12.93986 | 79.74549 | 9545 ft | 284 kts | 68° |
| 2026-05-07 16:18 | 12.94690 | 79.76439 | 9125 ft | 283 kts | 68° |
| 2026-05-07 16:19 | 12.95392 | 79.78324 | 8706 ft | 283 kts | 68° |
| 2026-05-07 16:19 | 12.96091 | 79.80203 | 8300 ft | 282 kts | 68° |
| 2026-05-07 16:19 | 12.96788 | 79.82079 | 7893 ft | 281 kts | 68° |
| 2026-05-07 16:19 | 12.97484 | 79.83951 | 7486 ft | 281 kts | 68° |
| 2026-05-07 16:20 | 12.98177 | 79.85818 | 7112 ft | 279 kts | 68° |
| 2026-05-07 16:20 | 12.98847 | 79.87620 | 7004 ft | 268 kts | 68° |
| 2026-05-07 16:20 | 12.99518 | 79.89427 | 7012 ft | 274 kts | 68° |
| 2026-05-07 16:20 | 13.00194 | 79.91246 | 6999 ft | 271 kts | 68° |
| 2026-05-07 16:21 | 13.00855 | 79.93029 | 6986 ft | 265 kts | 68° |
| 2026-05-07 16:21 | 13.01507 | 79.94786 | 6994 ft | 263 kts | 68° |
| 2026-05-07 16:21 | 13.02144 | 79.96504 | 6975 ft | 252 kts | 68° |
| 2026-05-07 16:21 | 13.02749 | 79.98136 | 6969 ft | 237 kts | 68° |
| 2026-05-07 16:22 | 13.03328 | 79.99697 | 6975 ft | 233 kts | 68° |
| 2026-05-07 16:22 | 13.03895 | 80.01226 | 6982 ft | 232 kts | 68° |
| 2026-05-07 16:22 | 13.04468 | 80.02771 | 6989 ft | 232 kts | 68° |
| 2026-05-07 16:22 | 13.05040 | 80.04315 | 6988 ft | 231 kts | 68° |
| 2026-05-07 16:23 | 13.05610 | 80.05855 | 6992 ft | 231 kts | 68° |
| 2026-05-07 16:23 | 13.06180 | 80.07392 | 6998 ft | 230 kts | 68° |
| 2026-05-07 16:23 | 13.06749 | 80.08928 | 7002 ft | 230 kts | 68° |
| 2026-05-07 16:23 | 13.07315 | 80.10457 | 7033 ft | 228 kts | 68° |
| 2026-05-07 16:24 | 13.07879 | 80.11979 | 7027 ft | 230 kts | 68° |
| 2026-05-07 16:24 | 13.08448 | 80.13516 | 7010 ft | 231 kts | 68° |
| 2026-05-07 16:24 | 13.09013 | 80.15044 | 7005 ft | 233 kts | 68° |
| 2026-05-07 16:24 | 13.09588 | 80.16598 | 7000 ft | 234 kts | 68° |
| 2026-05-07 16:25 | 13.10165 | 80.18159 | 6998 ft | 234 kts | 68° |
| 2026-05-07 16:25 | 13.10744 | 80.19724 | 6999 ft | 234 kts | 68° |
| 2026-05-07 16:25 | 13.11318 | 80.21278 | 6969 ft | 233 kts | 68° |
| 2026-05-07 16:25 | 13.11900 | 80.22851 | 6684 ft | 239 kts | 69° |
| 2026-05-07 16:26 | 13.12492 | 80.24452 | 6336 ft | 239 kts | 69° |
| 2026-05-07 16:26 | 13.13070 | 80.26016 | 5996 ft | 232 kts | 69° |
| 2026-05-07 16:26 | 13.13644 | 80.27522 | 5593 ft | 228 kts | 68° |
| 2026-05-07 16:26 | 13.14038 | 80.28533 | 5329 ft | 225 kts | 68° |
| 2026-05-07 16:27 | 13.14797 | 80.30480 | 4816 ft | 219 kts | 69° |
| 2026-05-07 16:27 | 13.15357 | 80.31920 | 4429 ft | 215 kts | 69° |
| 2026-05-07 16:27 | 13.15900 | 80.33316 | 4111 ft | 206 kts | 69° |
| 2026-05-07 16:27 | 13.16281 | 80.34684 | 3758 ft | 195 kts | 90° |
| 2026-05-07 16:28 | 13.15846 | 80.35942 | 3375 ft | 188 kts | 131° |
| 2026-05-07 16:28 | 13.14750 | 80.36600 | 3054 ft | 183 kts | 158° |
| 2026-05-07 16:28 | 13.13565 | 80.37023 | 2679 ft | 183 kts | 157° |
| 2026-05-07 16:28 | 13.12357 | 80.37426 | 2359 ft | 181 kts | 164° |
| 2026-05-07 16:29 | 13.11157 | 80.37572 | 2297 ft | 171 kts | 177° |
| 2026-05-07 16:29 | 13.09963 | 80.37459 | 2309 ft | 174 kts | 188° |
| 2026-05-07 16:29 | 13.08817 | 80.37034 | 2299 ft | 177 kts | 204° |
| 2026-05-07 16:29 | 13.07790 | 80.36321 | 2281 ft | 179 kts | 217° |
| 2026-05-07 16:30 | 13.06909 | 80.35420 | 2291 ft | 179 kts | 226° |
| 2026-05-07 16:30 | 13.06151 | 80.34419 | 2305 ft | 174 kts | 231° |
| 2026-05-07 16:30 | 13.05508 | 80.33376 | 2293 ft | 177 kts | 238° |
| 2026-05-07 16:30 | 13.04930 | 80.32264 | 2294 ft | 177 kts | 239° |
| 2026-05-07 16:31 | 13.04401 | 80.31168 | 2254 ft | 159 kts | 243° |
| 2026-05-07 16:31 | 13.04012 | 80.30217 | 2163 ft | 131 kts | 245° |
| 2026-05-07 16:31 | 13.03679 | 80.29359 | 1851 ft | 136 kts | 246° |
| 2026-05-07 16:31 | 13.03325 | 80.28419 | 1676 ft | 144 kts | 246° |
| 2026-05-07 16:32 | 13.02970 | 80.27468 | 1756 ft | 141 kts | 246° |
| 2026-05-07 16:32 | 13.02631 | 80.26561 | 1858 ft | 134 kts | 245° |
| 2026-05-07 16:32 | 13.02260 | 80.25573 | 1573 ft | 168 kts | 246° |
| 2026-05-07 16:32 | 13.01823 | 80.24401 | 1277 ft | 175 kts | 247° |
| 2026-05-07 16:33 | 13.01412 | 80.23295 | 1004 ft | 159 kts | 246° |
| 2026-05-07 16:33 | 13.01073 | 80.22245 | 664 ft | 149 kts | 251° |
| 2026-05-07 16:33 | 13.00745 | 80.21293 | 356 ft | 135 kts | 242° |
| 2026-05-07 16:33 | 13.00387 | 80.20554 | 97 ft | 13 kts | 264° |